Time;durP1;ratioP1;P1;durP2;ratioP2;P2;SDS_P1;SDS_P2;PMS_P1;PMS_P2;Temp;Humidity;BMP_temperature;BMP_pressure;BME280_temperature;BME280_humidity;BME280_pressure;Samples;Min_cycle;Max_cycle;Signal;HPM_P1;HPM_P2
2023/04/12 00:02:10;;;;;;;16.77;10.50;;;;;;;10.96;80.83;100470.56;5073541;28;20079;-44
2023/04/12 00:04:35;;;;;;;16.27;10.77;;;;;;;10.91;80.36;100454.13;5073586;28;20032;-43
2023/04/12 00:07:01;;;;;;;16.80;11.07;;;;;;;10.89;80.98;100437.00;5072120;28;20032;-43
2023/04/12 00:09:31;;;;;;;17.30;10.70;;;;;;;10.90;81.54;100424.81;5073728;28;20028;-43
2023/04/12 00:11:59;;;;;;;17.52;11.13;;;;;;;10.90;81.42;100428.41;5073686;28;20032;-42
2023/04/12 00:14:25;;;;;;;17.42;10.60;;;;;;;10.87;81.11;100428.22;5072209;28;20047;-44
2023/04/12 00:16:50;;;;;;;16.13;10.55;;;;;;;10.83;82.76;100422.50;5072886;28;20029;-46
2023/04/12 00:19:16;;;;;;;18.52;11.10;;;;;;;10.76;82.48;100400.84;5072828;28;20033;-42
2023/04/12 00:21:42;;;;;;;18.23;10.98;;;;;;;10.67;83.04;100399.97;5073148;28;20029;-43
2023/04/12 00:24:07;;;;;;;16.70;10.70;;;;;;;10.66;83.24;100405.81;5072923;28;20444;-44
2023/04/12 00:26:32;;;;;;;17.42;10.73;;;;;;;10.68;83.97;100398.03;5081145;28;20028;-43
2023/04/12 00:28:58;;;;;;;17.52;10.88;;;;;;;10.67;83.67;100379.78;5092846;28;20025;-44
2023/04/12 00:31:23;;;;;;;17.73;11.13;;;;;;;10.66;83.85;100380.91;5093319;28;20032;-44
2023/04/12 00:33:49;;;;;;;16.80;10.90;;;;;;;10.60;84.28;100374.69;5091984;28;20039;-44
2023/04/12 00:36:14;;;;;;;15.35;11.05;;;;;;;10.61;83.67;100368.03;5093288;28;20031;-47
2023/04/12 00:38:41;;;;;;;17.85;11.40;;;;;;;10.60;83.81;100352.56;5092506;28;20056;-44
2023/04/12 00:41:06;;;;;;;17.92;11.50;;;;;;;10.66;83.93;100350.47;5093371;28;20051;-44
2023/04/12 00:43:32;;;;;;;16.95;10.90;;;;;;;10.63;84.29;100337.31;5093093;28;20473;-44
2023/04/12 00:45:58;;;;;;;18.27;11.60;;;;;;;10.62;83.95;100336.47;5093026;28;20115;-43
2023/04/12 00:48:25;;;;;;;16.73;11.05;;;;;;;10.60;84.56;100327.69;5093109;28;20469;-44
2023/04/12 00:50:54;;;;;;;17.70;10.80;;;;;;;10.59;85.10;100326.03;5093196;28;20039;-44
2023/04/12 00:53:21;;;;;;;17.80;11.30;;;;;;;10.54;84.76;100313.19;5093372;28;20031;-45
2023/04/12 00:55:48;;;;;;;18.00;11.45;;;;;;;10.54;85.56;100309.59;5089370;28;20032;-44
2023/04/12 00:58:15;;;;;;;16.35;10.68;;;;;;;10.56;85.15;100307.34;5091723;28;20113;-44
2023/04/12 01:00:43;;;;;;;17.08;10.85;;;;;;;10.47;85.43;100304.53;5092807;28;20028;-45
2023/04/12 01:03:10;;;;;;;16.73;10.77;;;;;;;10.48;86.03;100291.53;5093103;28;20035;-44
2023/04/12 01:05:47;;;;;;;17.83;11.40;;;;;;;10.45;86.08;100285.50;5092620;28;20397;-43
2023/04/12 01:08:32;;;;;;;17.30;11.30;;;;;;;10.42;86.05;100275.06;5092609;28;20453;-44
2023/04/12 01:11:11;;;;;;;18.33;11.30;;;;;;;10.35;86.61;100266.38;5092660;28;20100;-44
2023/04/12 01:14:21;;;;;;;17.92;11.40;;;;;;;10.42;85.90;100260.44;5092719;28;20039;-44
2023/04/12 01:16:52;;;;;;;17.02;11.27;;;;;;;10.31;86.73;100248.78;5054442;28;20036;-47
2023/04/12 01:20:12;;;;;;;17.50;11.35;;;;;;;10.36;85.51;100240.38;5092423;28;20086;-43
2023/04/12 01:23:14;;;;;;;18.98;11.60;;;;;;;10.30;87.07;100225.88;5010138;28;20133;-44
2023/04/12 01:26:14;;;;;;;16.48;11.10;;;;;;;10.24;86.76;100218.03;5010095;28;20028;-44
2023/04/12 01:28:42;;;;;;;17.42;11.38;;;;;;;10.15;87.64;100207.78;5089208;28;20140;-47
2023/04/12 01:31:09;;;;;;;17.58;11.23;;;;;;;10.16;88.14;100200.28;5091590;28;20513;-45
2023/04/12 01:33:39;;;;;;;18.13;11.02;;;;;;;10.15;88.24;100196.72;5092443;28;20500;-44
2023/04/12 01:36:15;;;;;;;17.35;11.10;;;;;;;10.08;88.17;100185.31;5092260;28;20032;-43
2023/04/12 01:38:42;;;;;;;17.98;10.80;;;;;;;10.09;88.26;100183.34;5092103;28;20436;-44
2023/04/12 01:41:08;;;;;;;16.95;11.13;;;;;;;10.10;89.04;100191.34;5092203;28;20035;-43
2023/04/12 01:43:39;;;;;;;17.30;11.20;;;;;;;10.11;88.56;100178.31;5092253;28;20093;-43
2023/04/12 01:46:05;;;;;;;17.63;11.57;;;;;;;10.09;88.96;100162.06;5092505;28;20421;-44
2023/04/12 01:48:31;;;;;;;17.70;10.98;;;;;;;10.10;88.45;100160.94;5092074;28;20531;-44
2023/04/12 01:51:04;;;;;;;20.45;11.60;;;;;;;10.07;88.60;100153.28;5092059;28;20032;-44
2023/04/12 01:53:57;;;;;;;17.55;11.18;;;;;;;10.09;89.26;100145.50;5087896;28;20480;-47
2023/04/12 01:56:25;;;;;;;17.77;11.50;;;;;;;10.06;89.29;100148.88;5092154;28;20105;-47
2023/04/12 01:58:54;;;;;;;17.95;11.85;;;;;;;10.03;89.17;100145.94;5091881;28;20477;-47
2023/04/12 02:01:21;;;;;;;18.02;11.27;;;;;;;9.98;89.03;100120.06;5091937;28;20016;-47
2023/04/12 02:03:48;;;;;;;17.30;11.30;;;;;;;10.00;88.84;100128.06;5091705;28;20093;-46
2023/04/12 02:06:14;;;;;;;18.25;11.30;;;;;;;10.04;89.54;100119.94;5091774;28;20016;-44
2023/04/12 02:08:40;;;;;;;17.63;11.10;;;;;;;10.05;89.34;100100.28;5091411;28;20078;-44
2023/04/12 02:11:09;;;;;;;16.25;11.13;;;;;;;10.05;88.96;100088.41;5090644;28;20024;-44
2023/04/12 02:13:35;;;;;;;16.80;11.13;;;;;;;9.95;88.30;100075.69;5091822;28;20105;-45
2023/04/12 02:16:01;;;;;;;16.80;10.80;;;;;;;10.02;87.85;100084.31;5091967;28;20056;-44
2023/04/12 02:18:26;;;;;;;17.77;11.30;;;;;;;10.03;88.19;100085.16;5091678;28;20036;-44
2023/04/12 02:20:52;;;;;;;19.10;11.05;;;;;;;9.97;88.17;100060.41;5091673;28;20024;-43
2023/04/12 02:23:17;;;;;;;18.23;11.23;;;;;;;10.05;87.65;100058.00;5091607;28;20175;-45
2023/04/12 02:25:45;;;;;;;16.63;10.95;;;;;;;10.08;87.20;100051.81;5091711;28;20457;-44
2023/04/12 02:28:11;;;;;;;17.25;10.88;;;;;;;10.07;87.97;100045.50;5091495;28;20031;-43
2023/04/12 02:30:37;;;;;;;16.45;11.32;;;;;;;10.14;87.79;100047.78;5090324;28;20032;-44
2023/04/12 02:33:04;;;;;;;15.68;10.70;;;;;;;10.01;86.97;100016.41;5091738;28;20024;-44
2023/04/12 02:35:30;;;;;;;17.83;11.00;;;;;;;10.08;87.38;100027.78;5091864;28;20027;-44
2023/04/12 02:37:56;;;;;;;15.50;11.30;;;;;;;10.02;87.11;100025.50;5090213;28;20489;-44
2023/04/12 02:40:22;;;;;;;15.48;11.05;;;;;;;10.06;87.33;100020.97;5091542;28;20056;-47
2023/04/12 02:42:47;;;;;;;18.40;10.90;;;;;;;10.09;86.82;100014.75;5091699;28;20040;-46
2023/04/12 02:45:13;;;;;;;16.13;10.98;;;;;;;10.11;87.04;99993.16;5091532;28;20553;-44
2023/04/12 02:47:40;;;;;;;17.33;11.10;;;;;;;10.10;87.26;99986.81;5089715;28;20103;-43
2023/04/12 02:50:06;;;;;;;19.30;11.00;;;;;;;10.09;87.60;99976.91;5090324;28;20036;-44
2023/04/12 02:52:32;;;;;;;16.40;11.00;;;;;;;10.11;88.59;99974.59;5091587;28;20032;-44
2023/04/12 02:54:58;;;;;;;15.73;10.45;;;;;;;10.07;87.14;99967.28;5091495;28;20024;-45
2023/04/12 02:57:23;;;;;;;16.95;10.60;;;;;;;10.05;87.46;99966.81;5091523;28;20038;-51
2023/04/12 02:59:52;;;;;;;17.42;10.73;;;;;;;10.03;87.95;99964.38;5091694;28;20016;-44
2023/04/12 03:02:18;;;;;;;17.15;10.70;;;;;;;10.01;86.99;99946.50;5094025;28;20028;-47
2023/04/12 03:04:45;;;;;;;14.73;10.40;;;;;;;10.01;87.14;99936.28;5095569;28;20149;-45
2023/04/12 03:07:11;;;;;;;15.77;10.23;;;;;;;10.03;87.32;99924.88;5095875;28;20024;-46
2023/04/12 03:09:37;;;;;;;15.27;10.45;;;;;;;10.01;87.63;99930.75;5095060;28;20024;-46
2023/04/12 03:12:03;;;;;;;18.25;10.70;;;;;;;10.03;88.42;99927.66;5094927;28;20077;-48
2023/04/12 03:14:28;;;;;;;16.50;10.65;;;;;;;10.02;88.04;99918.53;5095100;28;20024;-48
2023/04/12 03:16:53;;;;;;;17.48;10.75;;;;;;;10.00;88.04;99909.78;5095212;28;20115;-46
2023/04/12 03:19:18;;;;;;;15.60;10.80;;;;;;;9.96;87.76;99900.50;5094855;28;20055;-47
2023/04/12 03:21:44;;;;;;;14.32;10.38;;;;;;;9.96;88.15;99903.25;5094792;28;20039;-47
2023/04/12 03:24:09;;;;;;;15.25;10.40;;;;;;;9.92;88.88;99900.34;5094745;28;20051;-45
2023/04/12 03:26:35;;;;;;;15.23;10.50;;;;;;;10.02;90.25;99898.38;5094634;28;20478;-46
2023/04/12 03:29:07;;;;;;;14.98;10.30;;;;;;;10.07;89.00;99895.44;5094622;28;20090;-44
2023/04/12 03:31:33;;;;;;;16.42;10.68;;;;;;;10.10;88.78;99892.88;5094624;28;20120;-46
2023/04/12 03:33:59;;;;;;;15.60;10.60;;;;;;;10.12;88.93;99876.75;5094626;28;20038;-46
2023/04/12 03:36:26;;;;;;;17.35;10.68;;;;;;;10.10;89.03;99879.03;5094419;28;20401;-44
2023/04/12 03:38:51;;;;;;;15.38;10.63;;;;;;;10.02;90.06;99854.97;5094306;28;20441;-43
2023/04/12 03:41:16;;;;;;;14.05;10.30;;;;;;;10.08;90.00;99881.31;5094541;28;20114;-44
2023/04/12 03:43:42;;;;;;;15.23;10.50;;;;;;;10.06;89.29;99866.22;5090812;28;20032;-45
2023/04/12 03:46:07;;;;;;;16.45;10.88;;;;;;;10.04;89.82;99854.66;5094488;28;20477;-43
2023/04/12 03:48:33;;;;;;;16.05;11.15;;;;;;;10.05;89.38;99859.06;5094192;28;20051;-44
2023/04/12 03:50:58;;;;;;;14.65;10.48;;;;;;;9.95;89.45;99846.38;5094299;28;20036;-44
2023/04/12 03:53:27;;;;;;;14.57;10.35;;;;;;;9.95;90.61;99849.13;5094191;28;20055;-44
2023/04/12 03:55:52;;;;;;;15.50;10.70;;;;;;;9.95;90.51;99846.38;5094335;28;20059;-46
2023/04/12 03:58:19;;;;;;;13.40;10.18;;;;;;;9.89;90.79;99826.38;5094200;28;20059;-45
2023/04/12 04:00:45;;;;;;;16.23;10.65;;;;;;;10.03;90.86;99831.72;5093951;28;20481;-44
2023/04/12 04:03:11;;;;;;;15.32;10.60;;;;;;;10.04;91.29;99825.06;5092590;28;20031;-44
2023/04/12 04:05:36;;;;;;;14.18;10.40;;;;;;;9.96;91.14;99820.38;5094009;28;20024;-43
2023/04/12 04:08:02;;;;;;;14.80;10.52;;;;;;;9.95;91.42;99818.75;5093625;28;20055;-46
2023/04/12 04:10:27;;;;;;;15.38;10.52;;;;;;;9.89;91.47;99817.28;5093901;28;20024;-44
2023/04/12 04:12:53;;;;;;;16.35;10.40;;;;;;;9.90;92.85;99819.72;5092613;28;20028;-43
2023/04/12 04:15:18;;;;;;;15.25;11.20;;;;;;;9.82;92.26;99812.25;5093685;28;20111;-45
2023/04/12 04:17:46;;;;;;;14.30;10.68;;;;;;;9.82;92.63;99806.75;5093050;28;20107;-45
2023/04/12 04:20:12;;;;;;;14.90;10.90;;;;;;;9.76;91.90;99803.31;5094090;28;20042;-43
2023/04/12 04:22:38;;;;;;;17.63;11.40;;;;;;;9.71;93.04;99799.91;5093271;28;20756;-43
2023/04/12 04:25:04;;;;;;;16.05;11.30;;;;;;;9.70;94.46;99790.00;5093657;28;20032;-44
2023/04/12 04:27:33;;;;;;;16.02;11.43;;;;;;;9.72;93.66;99784.97;5093403;28;20039;-45
2023/04/12 04:30:01;;;;;;;15.20;11.40;;;;;;;9.74;93.90;99782.69;5093714;28;20481;-44
2023/04/12 04:32:31;;;;;;;16.20;11.10;;;;;;;9.75;93.85;99778.81;5093286;28;20066;-43
2023/04/12 04:34:59;;;;;;;14.75;11.20;;;;;;;9.65;93.45;99778.00;5093268;28;20059;-47
2023/04/12 04:37:34;;;;;;;17.23;11.43;;;;;;;9.64;94.63;99773.63;5091715;28;20461;-44
2023/04/12 04:40:00;;;;;;;17.08;11.38;;;;;;;9.58;94.43;99768.56;5089365;28;20055;-43
2023/04/12 04:42:25;;;;;;;15.57;11.10;;;;;;;9.65;94.91;99768.88;5093290;28;20032;-44
2023/04/12 04:44:50;;;;;;;14.88;10.80;;;;;;;9.65;95.18;99757.84;5093135;28;20449;-47
2023/04/12 04:47:16;;;;;;;15.02;10.88;;;;;;;9.61;94.66;99760.44;5081470;28;20086;-47
2023/04/12 04:49:43;;;;;;;17.38;11.20;;;;;;;9.55;95.18;99749.91;5072726;28;20058;-44
2023/04/12 04:52:08;;;;;;;16.10;11.32;;;;;;;9.68;94.80;99759.97;5082752;28;20034;-47
2023/04/12 04:54:34;;;;;;;15.10;11.25;;;;;;;9.65;94.86;99752.31;5092957;28;20401;-46
2023/04/12 04:57:00;;;;;;;17.70;11.65;;;;;;;9.61;94.66;99749.41;5092842;28;20063;-47
2023/04/12 04:59:25;;;;;;;15.60;11.23;;;;;;;9.66;95.17;99751.19;5092785;28;20591;-45
2023/04/12 05:01:51;;;;;;;14.63;11.05;;;;;;;9.72;94.63;99755.41;5085725;28;20021;-47
2023/04/12 05:04:16;;;;;;;15.40;11.40;;;;;;;9.77;94.57;99752.47;5072524;28;20024;-46
2023/04/12 05:06:41;;;;;;;14.82;11.45;;;;;;;9.74;94.60;99753.13;5054468;28;20411;-47
2023/04/12 05:09:07;;;;;;;16.52;11.57;;;;;;;9.73;95.38;99747.94;5081226;28;20031;-44
2023/04/12 05:11:32;;;;;;;16.27;11.35;;;;;;;9.72;95.46;99738.84;5092434;28;20051;-45
2023/04/12 05:13:57;;;;;;;15.35;11.50;;;;;;;9.68;96.31;99744.19;5092502;28;20039;-44
2023/04/12 05:16:23;;;;;;;15.98;11.52;;;;;;;9.68;95.44;99737.88;5091756;28;20031;-44
2023/04/12 05:18:48;;;;;;;15.57;11.65;;;;;;;9.65;95.39;99730.22;5071950;28;20032;-44
2023/04/12 05:21:13;;;;;;;15.77;11.13;;;;;;;9.66;96.04;99735.44;5071946;28;20473;-47
2023/04/12 05:23:45;;;;;;;15.68;11.30;;;;;;;9.64;96.06;99726.66;5072052;28;20029;-43
2023/04/12 05:26:11;;;;;;;16.05;11.80;;;;;;;9.61;95.81;99724.56;5072097;28;20024;-44
2023/04/12 05:28:36;;;;;;;15.80;11.48;;;;;;;9.63;96.58;99730.56;5072100;28;20028;-46
2023/04/12 05:31:02;;;;;;;15.45;11.23;;;;;;;9.63;96.55;99721.50;5072157;28;20036;-43
2023/04/12 05:33:27;;;;;;;15.65;11.23;;;;;;;9.64;96.46;99723.06;5072047;28;20020;-45
2023/04/12 05:35:52;;;;;;;15.48;11.07;;;;;;;9.67;96.83;99722.44;5072032;28;20020;-44
2023/04/12 05:38:18;;;;;;;15.63;11.18;;;;;;;9.65;96.22;99716.41;5071783;28;20044;-47
2023/04/12 05:40:43;;;;;;;15.38;11.52;;;;;;;9.70;97.05;99729.25;5068026;28;20098;-43
2023/04/12 05:43:11;;;;;;;16.25;11.50;;;;;;;9.67;97.30;99717.75;5090336;28;20074;-43
2023/04/12 05:45:37;;;;;;;15.52;11.57;;;;;;;9.62;96.97;99701.31;5092302;28;20030;-44
2023/04/12 05:48:03;;;;;;;16.23;11.48;;;;;;;9.66;97.43;99709.75;5092037;28;20383;-43
2023/04/12 05:50:28;;;;;;;16.20;11.38;;;;;;;9.71;97.13;99706.84;5092095;28;20024;-44
2023/04/12 05:52:54;;;;;;;15.02;11.35;;;;;;;9.72;96.95;99716.75;5092112;28;20032;-44
2023/04/12 05:55:20;;;;;;;15.63;11.00;;;;;;;9.71;97.57;99693.03;5092043;28;20128;-44
2023/04/12 05:57:45;;;;;;;18.00;11.48;;;;;;;10.05;97.48;99720.91;5092096;28;20077;-44
2023/04/12 06:00:17;;;;;;;18.70;11.43;;;;;;;10.19;98.54;99715.16;5091876;28;20066;-43
2023/04/12 06:02:44;;;;;;;16.85;11.45;;;;;;;10.14;97.01;99697.59;5091407;28;20100;-45
2023/04/12 06:05:10;;;;;;;15.52;10.95;;;;;;;10.36;95.84;99709.53;5092199;28;20032;-44
2023/04/12 06:07:38;;;;;;;17.40;11.50;;;;;;;10.48;94.30;99703.31;5091994;28;20036;-45
2023/04/12 06:10:04;;;;;;;15.30;11.30;;;;;;;10.57;94.01;99709.63;5091979;28;20098;-44
2023/04/12 06:12:29;;;;;;;16.10;11.70;;;;;;;10.59;93.53;99704.56;5091835;28;20141;-43
2023/04/12 06:14:55;;;;;;;16.25;11.32;;;;;;;10.54;93.79;99703.94;5090841;28;20100;-46
2023/04/12 06:17:20;;;;;;;16.33;11.35;;;;;;;10.55;93.85;99697.28;5089385;28;20707;-44
2023/04/12 06:19:46;;;;;;;17.67;11.57;;;;;;;10.49;93.78;99701.38;5069242;28;20016;-45
2023/04/12 06:22:11;;;;;;;15.13;11.50;;;;;;;10.43;94.01;99696.03;5068279;28;20083;-43
2023/04/12 06:24:37;;;;;;;17.00;11.60;;;;;;;10.42;93.72;99691.66;5067635;28;20115;-43
2023/04/12 06:27:02;;;;;;;17.10;11.88;;;;;;;10.40;94.29;99706.94;5067769;28;20481;-43
2023/04/12 06:29:28;;;;;;;14.80;11.50;;;;;;;10.33;94.80;99706.63;5069160;28;20090;-42
2023/04/12 06:31:53;;;;;;;15.98;11.88;;;;;;;10.25;95.37;99698.03;5069461;28;20389;-42
2023/04/12 06:34:19;;;;;;;16.67;11.55;;;;;;;10.25;95.06;99691.72;5068038;28;20033;-43
2023/04/12 06:36:46;;;;;;;16.67;11.70;;;;;;;10.25;95.15;99683.41;5070922;28;20076;-42
2023/04/12 06:39:12;;;;;;;17.05;11.77;;;;;;;10.34;95.48;99680.63;5074244;28;20052;-43
2023/04/12 06:41:38;;;;;;;15.30;11.45;;;;;;;10.31;95.08;99698.66;5074428;28;20025;-42
2023/04/12 06:44:04;;;;;;;16.08;11.80;;;;;;;10.19;95.46;99682.78;5073869;28;20025;-41
2023/04/12 06:46:30;;;;;;;14.55;11.35;;;;;;;10.15;96.23;99682.66;5072433;28;20040;-42
2023/04/12 06:48:56;;;;;;;15.82;11.52;;;;;;;10.15;96.56;99682.66;5073942;28;20048;-42
2023/04/12 06:51:21;;;;;;;17.30;11.70;;;;;;;10.13;96.50;99684.91;5072301;28;20064;-43
2023/04/12 06:53:46;;;;;;;16.30;11.60;;;;;;;10.13;96.61;99681.34;5073707;28;20115;-42
2023/04/12 06:56:11;;;;;;;16.70;11.90;;;;;;;10.09;97.08;99689.50;5073594;28;20032;-46
2023/04/12 06:58:37;;;;;;;15.65;11.50;;;;;;;10.04;97.27;99695.19;5072181;28;20041;-44
2023/04/12 07:01:06;;;;;;;16.42;11.85;;;;;;;9.95;97.75;99697.19;5073525;28;20028;-43
2023/04/12 07:03:32;;;;;;;17.63;12.63;;;;;;;9.92;97.89;99701.41;5073695;28;20135;-43
2023/04/12 07:06:04;;;;;;;17.48;12.40;;;;;;;9.83;98.96;99682.09;5073593;28;20446;-43
2023/04/12 07:08:33;;;;;;;18.15;12.73;;;;;;;9.89;99.17;99699.31;5073510;28;20032;-43
2023/04/12 07:10:58;;;;;;;17.92;13.00;;;;;;;9.90;99.18;99700.13;5073044;28;20033;-43
2023/04/12 07:13:24;;;;;;;17.67;12.63;;;;;;;9.91;99.13;99699.78;5071615;28;20035;-43
2023/04/12 07:15:49;;;;;;;17.38;12.30;;;;;;;9.86;98.06;99686.19;5073167;28;20030;-43
2023/04/12 07:18:15;;;;;;;17.30;12.43;;;;;;;9.92;97.84;99701.41;5073544;28;20029;-43
2023/04/12 07:20:40;;;;;;;17.77;12.73;;;;;;;9.92;98.30;99693.13;5073230;28;20075;-43
2023/04/12 07:23:06;;;;;;;17.90;12.25;;;;;;;9.95;98.17;99702.72;5073180;28;20032;-43
2023/04/12 07:25:31;;;;;;;17.50;12.80;;;;;;;9.95;98.40;99699.94;5073262;28;20028;-43
2023/04/12 07:27:56;;;;;;;17.75;12.23;;;;;;;9.98;98.77;99699.28;5072958;28;20066;-42
2023/04/12 07:30:22;;;;;;;17.33;11.90;;;;;;;9.88;98.58;99680.31;5071646;28;20071;-42
2023/04/12 07:32:47;;;;;;;17.30;12.15;;;;;;;9.99;97.89;99696.19;5092835;28;20090;-42
2023/04/12 07:35:13;;;;;;;17.92;12.70;;;;;;;10.01;97.91;99700.56;5093225;28;20032;-42
2023/04/12 07:37:38;;;;;;;18.40;12.18;;;;;;;10.02;97.94;99699.44;5093036;28;20028;-43
2023/04/12 07:40:04;;;;;;;19.20;13.30;;;;;;;10.05;98.28;99702.34;5092783;28;20051;-43
2023/04/12 07:42:29;;;;;;;19.45;13.07;;;;;;;10.02;97.51;99697.47;5092824;28;20028;-42
2023/04/12 07:44:55;;;;;;;20.27;13.45;;;;;;;10.08;97.79;99701.69;5092862;28;20024;-42
2023/04/12 07:47:20;;;;;;;20.65;13.55;;;;;;;10.10;97.50;99688.38;5092737;28;20107;-44
2023/04/12 07:49:45;;;;;;;18.45;12.45;;;;;;;10.17;97.41;99681.50;5092757;28;20034;-43
2023/04/12 07:52:10;;;;;;;18.30;12.45;;;;;;;10.20;98.23;99694.66;5093015;28;20167;-43
2023/04/12 07:54:36;;;;;;;19.65;12.93;;;;;;;10.24;97.61;99696.44;5092874;28;20389;-42
2023/04/12 07:57:02;;;;;;;16.95;12.40;;;;;;;10.25;97.97;99686.97;5091156;28;20024;-43
2023/04/12 07:59:29;;;;;;;19.10;12.77;;;;;;;10.28;98.23;99680.00;5092425;28;20024;-42
2023/04/12 08:01:54;;;;;;;18.15;12.50;;;;;;;10.33;97.27;99684.53;5092357;28;20024;-42
2023/04/12 08:04:20;;;;;;;19.70;12.35;;;;;;;10.35;96.22;99682.22;5092253;28;20028;-42
2023/04/12 08:06:45;;;;;;;19.40;12.80;;;;;;;10.40;97.26;99679.31;5092143;28;20540;-42
2023/04/12 08:09:10;;;;;;;19.05;12.30;;;;;;;10.41;96.22;99676.19;5091722;28;20385;-41
2023/04/12 08:11:36;;;;;;;22.80;14.65;;;;;;;10.42;96.41;99682.56;5091816;28;20028;-42
2023/04/12 08:14:01;;;;;;;24.65;15.05;;;;;;;10.38;95.48;99684.34;5090600;28;20109;-43
2023/04/12 08:16:26;;;;;;;39.65;24.52;;;;;;;10.40;95.55;99677.34;5092026;28;20068;-43
2023/04/12 08:18:52;;;;;;;32.45;21.48;;;;;;;10.38;96.50;99676.06;5092128;28;20081;-43
2023/04/12 08:21:17;;;;;;;22.92;15.40;;;;;;;10.42;95.18;99688.09;5092051;28;20028;-43
2023/04/12 08:23:42;;;;;;;20.52;12.43;;;;;;;10.45;93.92;99692.94;5091941;28;20056;-43
2023/04/12 08:26:08;;;;;;;18.95;12.15;;;;;;;10.43;93.97;99695.25;5091155;28;20028;-41
2023/04/12 08:28:33;;;;;;;20.77;12.95;;;;;;;10.42;92.33;99691.66;5091193;28;20027;-43
2023/04/12 08:30:59;;;;;;;21.13;13.43;;;;;;;10.44;91.75;99699.59;5091959;28;20024;-44
2023/04/12 08:33:24;;;;;;;19.50;12.13;;;;;;;10.39;91.81;99692.31;5092030;28;20389;-42
2023/04/12 08:35:51;;;;;;;22.15;14.25;;;;;;;10.36;93.01;99698.50;5091960;28;20031;-44
2023/04/12 08:38:16;;;;;;;20.70;12.48;;;;;;;10.36;91.91;99692.97;5089907;28;20739;-42
2023/04/12 08:40:42;;;;;;;22.38;14.23;;;;;;;10.36;92.08;99692.97;5091606;28;20086;-42
2023/04/12 08:43:10;;;;;;;20.75;12.80;;;;;;;10.37;92.44;99691.00;5091416;28;20479;-42
2023/04/12 08:45:36;;;;;;;21.38;12.48;;;;;;;10.40;93.27;99695.91;5091250;28;20382;-43
2023/04/12 08:48:04;;;;;;;21.02;13.75;;;;;;;10.38;93.17;99678.81;5091324;28;20059;-41
2023/04/12 08:50:30;;;;;;;21.95;13.73;;;;;;;10.46;93.61;99683.50;5091203;28;20055;-45
2023/04/12 08:52:58;;;;;;;19.40;12.90;;;;;;;10.57;94.19;99676.44;5091328;28;20042;-43
2023/04/12 08:55:23;;;;;;;21.52;13.88;;;;;;;10.64;95.64;99678.69;5091183;28;20493;-44
2023/04/12 08:57:52;;;;;;;19.83;12.82;;;;;;;10.67;95.52;99683.56;5091170;28;20039;-43
2023/04/12 09:00:19;;;;;;;19.73;12.70;;;;;;;10.75;96.39;99687.38;5090664;28;20035;-44
2023/04/12 09:02:47;;;;;;;19.52;12.85;;;;;;;10.81;95.46;99676.94;5091091;28;20070;-42
2023/04/12 09:05:13;;;;;;;20.73;13.57;;;;;;;10.84;95.43;99685.38;5089379;28;20035;-42
2023/04/12 09:07:39;;;;;;;20.40;13.10;;;;;;;10.84;95.56;99677.06;5089554;28;20392;-43
2023/04/12 09:10:05;;;;;;;22.05;13.95;;;;;;;10.91;95.00;99682.88;5089577;28;20032;-43
2023/04/12 09:12:30;;;;;;;19.75;12.93;;;;;;;10.98;93.18;99674.03;5090921;28;20067;-43
2023/04/12 09:15:14;;;;;;;21.02;13.38;;;;;;;11.01;93.11;99658.69;5089354;28;20024;-43
2023/04/12 09:17:41;;;;;;;20.85;13.25;;;;;;;11.00;89.74;99657.91;5091034;28;20143;-43
2023/04/12 09:20:15;;;;;;;20.40;12.50;;;;;;;11.09;90.89;99671.69;5090893;28;20036;-43
2023/04/12 09:22:43;;;;;;;21.70;12.57;;;;;;;11.14;89.77;99674.22;5090685;28;20028;-42
2023/04/12 09:25:09;;;;;;;21.65;12.48;;;;;;;11.18;89.11;99657.75;5090738;28;20100;-43
2023/04/12 09:27:53;;;;;;;21.75;13.32;;;;;;;11.24;88.58;99659.19;5090789;28;20024;-44
2023/04/12 09:30:19;;;;;;;21.23;12.93;;;;;;;11.32;88.28;99658.28;5090712;28;20480;-43
2023/04/12 09:32:48;;;;;;;23.42;12.70;;;;;;;11.36;87.92;99661.19;5090688;28;20449;-42
2023/04/12 09:35:13;;;;;;;20.85;13.32;;;;;;;11.45;87.87;99664.69;5090670;28;20562;-43
2023/04/12 09:37:39;;;;;;;21.52;12.88;;;;;;;11.54;88.07;99667.34;5090699;28;20056;-42
2023/04/12 09:40:09;;;;;;;22.30;13.57;;;;;;;11.69;87.68;99663.13;5090416;28;20135;-42
2023/04/12 09:42:50;;;;;;;24.75;13.80;;;;;;;11.76;88.47;99654.25;5088821;28;20554;-43
2023/04/12 09:45:23;;;;;;;24.75;13.45;;;;;;;11.84;86.47;99661.66;5090305;28;20035;-43
2023/04/12 09:47:48;;;;;;;23.90;13.88;;;;;;;11.84;85.02;99653.34;5090140;28;20112;-43
2023/04/12 09:50:25;;;;;;;23.73;13.45;;;;;;;11.82;84.51;99655.63;5090166;28;20072;-45
2023/04/12 09:52:52;;;;;;;23.52;13.80;;;;;;;11.79;85.63;99645.25;5090372;28;20038;-42
2023/04/12 09:55:19;;;;;;;31.00;15.68;;;;;;;11.90;85.86;99646.44;5090205;28;20031;-42
2023/04/12 09:57:45;;;;;;;24.73;15.10;;;;;;;11.95;86.00;99643.41;5090489;28;20108;-43
2023/04/12 10:00:18;;;;;;;23.88;14.30;;;;;;;12.03;84.96;99647.28;5090197;28;20024;-44
2023/04/12 10:02:46;;;;;;;26.70;15.48;;;;;;;12.07;82.98;99644.63;5090231;28;20031;-43
2023/04/12 10:05:16;;;;;;;24.23;14.80;;;;;;;12.16;83.41;99648.09;5088775;28;20039;-43
2023/04/12 10:07:43;;;;;;;24.73;14.35;;;;;;;12.21;83.00;99650.63;5090145;28;20493;-42
2023/04/12 10:10:11;;;;;;;25.77;14.32;;;;;;;12.20;79.56;99629.59;5090033;28;20081;-43
2023/04/12 10:12:37;;;;;;;26.55;13.85;;;;;;;12.20;80.48;99628.78;5093074;28;20078;-43
2023/04/12 10:15:06;;;;;;;29.05;17.23;;;;;;;12.21;80.58;99639.53;5092853;28;20032;-42
2023/04/12 10:17:33;;;;;;;31.15;18.65;;;;;;;12.15;81.25;99619.53;5094150;28;20024;-43
2023/04/12 10:19:59;;;;;;;24.20;14.55;;;;;;;12.15;80.13;99621.50;5094294;28;20036;-45
2023/04/12 10:22:25;;;;;;;25.40;15.57;;;;;;;12.15;82.65;99640.94;5092818;28;20032;-44
2023/04/12 10:24:51;;;;;;;24.02;13.85;;;;;;;12.17;78.35;99658.03;5094082;28;20028;-42
2023/04/12 10:27:25;;;;;;;25.40;13.77;;;;;;;12.09;78.37;99659.75;5093806;28;20035;-42
2023/04/12 10:29:51;;;;;;;26.40;13.40;;;;;;;12.13;79.01;99649.59;5094299;28;20024;-44
2023/04/12 10:32:18;;;;;;;24.48;13.20;;;;;;;12.15;77.80;99646.47;5093846;28;20488;-44
2023/04/12 10:34:44;;;;;;;24.77;13.00;;;;;;;12.18;77.61;99643.00;5093979;28;20024;-43
2023/04/12 10:37:09;;;;;;;22.38;12.88;;;;;;;12.29;76.83;99640.56;5092564;28;20036;-43
2023/04/12 10:39:40;;;;;;;25.45;13.27;;;;;;;12.33;77.78;99627.63;5094099;28;20067;-44
2023/04/12 10:42:14;;;;;;;24.80;13.68;;;;;;;12.48;76.74;99642.75;5093850;28;20081;-43
2023/04/12 10:44:39;;;;;;;22.75;13.02;;;;;;;12.54;77.10;99649.69;5093766;28;20067;-43
2023/04/12 10:47:05;;;;;;;23.20;12.98;;;;;;;12.55;77.71;99640.22;5093646;28;20070;-44
2023/04/12 10:49:31;;;;;;;22.05;12.20;;;;;;;12.61;72.42;99651.88;5093399;28;20043;-44
2023/04/12 10:51:59;;;;;;;22.00;12.35;;;;;;;12.66;73.97;99665.50;5093490;28;20385;-44
2023/04/12 10:54:25;;;;;;;22.63;11.85;;;;;;;12.65;68.87;99655.56;5093497;28;20070;-43
2023/04/12 10:56:50;;;;;;;20.67;11.70;;;;;;;12.64;69.33;99651.16;5093379;28;20474;-42
2023/04/12 10:59:16;;;;;;;20.73;11.18;;;;;;;12.68;66.81;99651.28;5093540;28;20024;-44
2023/04/12 11:02:08;;;;;;;22.20;12.18;;;;;;;12.68;68.59;99662.38;5093463;28;20024;-43
2023/04/12 11:04:34;;;;;;;19.98;11.30;;;;;;;12.59;66.49;99662.50;5093295;28;20073;-43
2023/04/12 11:07:03;;;;;;;20.48;11.40;;;;;;;12.59;68.96;99656.97;5093326;28;20032;-43
2023/04/12 11:09:39;;;;;;;20.85;11.27;;;;;;;12.53;67.88;99661.13;5093243;28;20032;-43
2023/04/12 11:12:05;;;;;;;22.40;11.70;;;;;;;12.51;67.29;99661.47;5088150;28;20055;-42
2023/04/12 11:14:36;;;;;;;23.27;12.38;;;;;;;12.47;67.38;99669.69;5087123;28;20571;-42
2023/04/12 11:17:04;;;;;;;20.95;11.77;;;;;;;12.42;68.47;99669.09;5093553;28;20032;-43
2023/04/12 11:19:35;;;;;;;20.25;11.15;;;;;;;12.40;67.09;99661.16;5093348;28;20036;-43